Terminal Aerodrome Forecast
Issued by NWS Wakefield, VA

Home | Current Version | Previous Version | Text Only | Print | Product List | Glossary On
Versions: 1 2 3 4 5 6 7 8 9 10 11 12 13 14 15 16 17 18 19 20 21 22 23 24 25
000
FTUS41 KAKQ 271700
TAFRIC
TAF
KRIC 271739Z 2718/2818 32004KT P6SM BKN015 OVC050
      TEMPO 2719/2721 SCT025 OVC070
     FM272100 35008KT P6SM BKN040
     FM280500 32005KT P6SM SKC=

USA.gov is the U.S. government's official web portal to all federal, state and local government web resources and services.